עמוד ראשי
METAR-TAF:

METAR-TAF

שדות תעופה :

Koyuk, אלסקה, ארצות הברית

קו רוחב: 64-56-02N, קו אורך: 161-09-29W, גובה: 37מטר

תצפית מזג אוויר נוכחית

הדו"ח נערך לפני 44דקות, בשעה 16:56 UTC
רוח 3קשר מכיוון צפון-מזרח
טמפרטורת 17 צלסיוס
לחות 45%
לחץ 1011 hPa
ראות: 16.1קילומטר
מעונן בגובה 10000רגל

METAR: PAKK 251656Z AUTO 04003KT 10SM OVC100 17/05 A2985 RMK AO2 SLPNO T01670050

זמן: 09:40 (17:40 UTC)


TAF: חסר

תצפיות ותחזיות מזג אוויר לגבי יותר מ- 4,000 שדות תעופה ברחבי העולם. דוחות METAR ו- TAF.

התחנות הזמינות מסומנות בנקודות צהובות ואדומות על גבי המפה.

העבר את העכבר לנקודה הצבעונית על מנת לראות את שם התחנה.

לאחר מכן, לחץ כדי לראות את תוכן ואת תחזיות מזג האוויר.

כדי לשנות את המפה: לחץ על הכפתורים הירוקים עם הפלוס השחור כדי להתקרב; על הכפתור הירוק עם המקף כדי להתרחק; או בחיצים הירוקים למפות סמוכות.


METAR-TAF: